createdAt,value
2022-10-13T00:01:16.163Z,16.50
2022-10-13T00:03:47.038Z,9.15
2022-10-13T00:06:21.634Z,12.35
2022-10-13T00:08:49.857Z,13.68
2022-10-13T00:11:18.171Z,12.15
2022-10-13T00:13:46.351Z,15.10
2022-10-13T00:16:15.777Z,12.30
2022-10-13T00:18:42.706Z,14.50
2022-10-13T00:21:12.663Z,13.32
2022-10-13T00:23:40.551Z,9.52
2022-10-13T00:26:11.841Z,12.15
2022-10-13T00:28:39.431Z,10.57
2022-10-13T00:31:19.474Z,8.55
2022-10-13T00:33:46.532Z,11.73
2022-10-13T00:36:13.544Z,14.98
2022-10-13T00:38:40.367Z,14.70
2022-10-13T00:41:07.483Z,12.07
2022-10-13T00:44:12.527Z,13.48
2022-10-13T00:46:39.349Z,15.07
2022-10-13T00:49:14.299Z,14.75
2022-10-13T00:51:49.058Z,11.95
2022-10-13T00:54:22.697Z,15.68
2022-10-13T00:56:51.466Z,10.82
2022-10-13T00:59:28.931Z,14.20
2022-10-13T01:01:57.961Z,11.73
2022-10-13T01:04:31.838Z,11.27
2022-10-13T01:06:59.024Z,17.23
2022-10-13T01:09:25.819Z,8.63
2022-10-13T01:12:11.649Z,10.63
2022-10-13T01:15:09.711Z,9.85
2022-10-13T01:17:54.741Z,12.25
2022-10-13T01:20:24.330Z,11.30
2022-10-13T01:23:14.082Z,15.65
2022-10-13T01:25:46.433Z,13.50
2022-10-13T01:28:35.123Z,12.63
2022-10-13T01:31:32.391Z,11.23
2022-10-13T01:34:30.403Z,12.10
2022-10-13T01:37:09.409Z,12.90
2022-10-13T01:39:45.056Z,10.18
2022-10-13T01:42:19.876Z,9.52
2022-10-13T01:44:51.712Z,14.05
2022-10-13T01:47:20.632Z,11.85
2022-10-13T01:49:52.220Z,15.40
2022-10-13T01:52:21.849Z,10.55
2022-10-13T01:54:53.199Z,11.82
2022-10-13T01:57:31.358Z,13.32
2022-10-13T02:00:01.749Z,10.85
2022-10-13T02:02:42.796Z,9.82
2022-10-13T02:05:32.838Z,13.82
2022-10-13T02:08:09.382Z,8.82
2022-10-13T02:10:44.665Z,11.82
2022-10-13T02:13:14.561Z,9.20
2022-10-13T02:15:47.468Z,12.63
2022-10-13T02:18:20.089Z,21.70
2022-10-13T02:20:47.911Z,11.00
2022-10-13T02:23:17.569Z,11.88
2022-10-13T02:25:46.036Z,8.75
2022-10-13T02:28:15.137Z,10.80
2022-10-13T02:30:46.018Z,13.38
2022-10-13T02:33:14.443Z,9.65
2022-10-13T02:35:42.074Z,17.73
2022-10-13T02:38:09.394Z,9.57
2022-10-13T02:40:36.426Z,13.07
2022-10-13T02:43:03.600Z,11.93
2022-10-13T02:45:30.418Z,14.88
2022-10-13T02:47:58.052Z,10.60
2022-10-13T02:50:24.954Z,10.85
2022-10-13T02:52:51.961Z,13.93
2022-10-13T02:55:18.859Z,16.10
2022-10-13T02:57:45.943Z,14.18
2022-10-13T03:00:13.815Z,14.05
2022-10-13T03:02:40.764Z,10.60
2022-10-13T03:05:08.006Z,15.95
2022-10-13T03:07:34.789Z,14.65
2022-10-13T03:10:01.704Z,15.35
2022-10-13T03:12:28.934Z,10.43
2022-10-13T03:14:56.495Z,14.85
2022-10-13T03:17:23.751Z,11.65
2022-10-13T03:19:50.983Z,18.73
2022-10-13T03:22:19.967Z,11.35
2022-10-13T03:24:48.482Z,9.93
2022-10-13T03:27:15.744Z,10.80
2022-10-13T03:29:42.621Z,12.07
2022-10-13T03:32:09.790Z,15.65
2022-10-13T03:34:36.683Z,15.80
2022-10-13T03:37:03.657Z,13.82
2022-10-13T03:39:34.348Z,10.98
2022-10-13T03:42:01.553Z,12.70
2022-10-13T03:44:28.424Z,21.85
2022-10-13T03:46:55.505Z,21.55
2022-10-13T03:49:22.299Z,15.35
2022-10-13T03:51:49.211Z,17.02
2022-10-13T03:54:16.704Z,24.60
2022-10-13T03:56:47.594Z,20.98
2022-10-13T03:59:17.075Z,17.83
2022-10-13T04:01:44.446Z,19.98
2022-10-13T04:04:14.010Z,20.00
2022-10-13T04:06:42.200Z,19.08
2022-10-13T04:09:09.640Z,18.70
2022-10-13T04:11:36.708Z,13.98
2022-10-13T04:14:03.804Z,17.85
2022-10-13T04:16:31.867Z,19.20
2022-10-13T04:19:01.964Z,24.65
2022-10-13T04:21:30.516Z,19.30
2022-10-13T04:23:59.001Z,17.73
2022-10-13T04:26:28.429Z,22.25
2022-10-13T04:28:56.566Z,13.23
2022-10-13T04:31:24.619Z,20.50
2022-10-13T04:33:53.246Z,22.52
2022-10-13T04:36:20.364Z,16.98
2022-10-13T04:38:50.367Z,23.42
2022-10-13T04:41:19.087Z,23.85
2022-10-13T04:43:53.025Z,18.33
2022-10-13T04:46:25.745Z,19.95
2022-10-13T04:48:55.480Z,20.33
2022-10-13T04:51:26.216Z,11.80
2022-10-13T04:54:05.510Z,13.30
2022-10-13T04:56:32.623Z,14.57
2022-10-13T04:59:02.459Z,25.58
2022-10-13T05:01:29.230Z,21.20
2022-10-13T05:03:58.919Z,14.38
2022-10-13T05:06:28.826Z,19.52
2022-10-13T05:08:56.472Z,17.08
2022-10-13T05:11:25.425Z,21.55
2022-10-13T05:13:52.787Z,16.38
2022-10-13T05:16:21.226Z,11.68
2022-10-13T05:18:49.716Z,13.90
2022-10-13T05:21:24.859Z,12.52
2022-10-13T05:23:54.768Z,12.93
2022-10-13T05:26:32.042Z,17.27
2022-10-13T05:29:00.297Z,15.75
2022-10-13T05:31:32.272Z,12.82
2022-10-13T05:33:59.945Z,12.95
2022-10-13T05:36:27.186Z,15.43
2022-10-13T05:38:56.897Z,12.18
2022-10-13T05:41:24.943Z,14.13
2022-10-13T05:43:57.313Z,13.38
2022-10-13T05:46:24.682Z,15.88
2022-10-13T05:48:51.822Z,12.50
2022-10-13T05:51:24.104Z,13.82
2022-10-13T05:53:57.791Z,12.15
2022-10-13T05:56:29.714Z,14.75
2022-10-13T05:59:02.643Z,13.93
2022-10-13T06:01:32.996Z,10.73
2022-10-13T06:04:04.249Z,13.90
2022-10-13T06:06:31.804Z,15.10
2022-10-13T06:09:00.265Z,15.07
2022-10-13T06:11:27.781Z,13.90
2022-10-13T06:13:54.635Z,17.30
2022-10-13T06:16:21.865Z,15.93
2022-10-13T06:18:48.724Z,20.73
2022-10-13T06:21:15.726Z,12.90
2022-10-13T06:23:42.521Z,22.00
2022-10-13T06:26:09.423Z,19.83
2022-10-13T06:28:37.365Z,14.32
2022-10-13T06:31:06.582Z,15.70
2022-10-13T06:33:34.139Z,19.50
2022-10-13T06:36:02.752Z,13.95
2022-10-13T06:38:29.628Z,14.35
2022-10-13T06:41:00.408Z,18.33
2022-10-13T06:43:38.687Z,16.73
2022-10-13T06:46:10.220Z,15.65
2022-10-13T06:48:37.369Z,18.85
2022-10-13T06:51:06.624Z,14.43
2022-10-13T06:53:33.931Z,15.02
2022-10-13T06:56:02.668Z,12.43
2022-10-13T06:58:30.750Z,16.02
2022-10-13T07:00:57.964Z,19.00
2022-10-13T07:03:25.428Z,22.35
2022-10-13T07:05:52.361Z,16.38
2022-10-13T07:08:19.462Z,21.98
2022-10-13T07:10:46.439Z,17.50
2022-10-13T07:13:13.349Z,14.10
2022-10-13T07:15:41.300Z,16.60
2022-10-13T07:18:08.409Z,15.57
2022-10-13T07:20:35.785Z,20.67
2022-10-13T07:23:03.540Z,20.58
2022-10-13T07:25:30.692Z,17.33
2022-10-13T07:27:59.900Z,16.58
2022-10-13T07:30:27.739Z,16.98
2022-10-13T07:32:54.832Z,19.33
2022-10-13T07:35:26.881Z,16.77
2022-10-13T07:37:56.467Z,15.23
2022-10-13T07:40:24.063Z,26.05
2022-10-13T07:42:50.964Z,21.05
2022-10-13T07:45:17.861Z,21.13
2022-10-13T07:47:44.802Z,21.65
2022-10-13T07:50:11.952Z,16.38
2022-10-13T07:52:39.200Z,15.15
2022-10-13T07:55:07.172Z,20.83
2022-10-13T07:57:34.315Z,18.05
2022-10-13T08:00:01.246Z,14.85
2022-10-13T08:02:30.060Z,17.23
2022-10-13T08:04:56.923Z,20.83
2022-10-13T08:07:23.995Z,13.48
2022-10-13T08:09:50.859Z,16.75
2022-10-13T08:12:18.161Z,16.48
2022-10-13T08:14:45.357Z,19.80
2022-10-13T08:17:13.020Z,14.73
2022-10-13T08:19:39.964Z,19.10
2022-10-13T08:22:09.754Z,19.45
2022-10-13T08:24:37.433Z,15.18
2022-10-13T08:27:04.371Z,23.02
2022-10-13T08:29:34.504Z,17.38
2022-10-13T08:32:01.646Z,14.27
2022-10-13T08:34:29.563Z,19.95
2022-10-13T08:36:57.410Z,17.67
2022-10-13T08:39:25.272Z,18.00
2022-10-13T08:41:53.071Z,16.05
2022-10-13T08:47:27.900Z,17.00
2022-10-13T08:50:04.014Z,15.88
2022-10-13T08:52:50.006Z,14.63
2022-10-13T08:55:43.146Z,19.60
2022-10-13T08:58:19.525Z,18.52
2022-10-13T09:00:46.912Z,19.00
2022-10-13T09:03:23.065Z,20.80
2022-10-13T09:05:59.056Z,20.52
2022-10-13T09:08:31.042Z,37.38
2022-10-13T09:10:59.645Z,31.08
2022-10-13T09:13:27.261Z,30.42
2022-10-13T09:15:56.372Z,22.60
2022-10-13T09:18:30.693Z,15.95
2022-10-13T09:21:15.668Z,19.65
2022-10-13T09:23:42.788Z,18.40
2022-10-13T09:26:20.786Z,24.27
2022-10-13T09:28:48.931Z,21.23
2022-10-13T09:31:17.682Z,17.35
2022-10-13T09:33:45.622Z,19.95
2022-10-13T09:36:15.520Z,23.33
2022-10-13T09:39:07.922Z,18.00
2022-10-13T09:41:36.949Z,20.25
2022-10-13T09:44:19.105Z,16.98
2022-10-13T09:46:56.827Z,19.52
2022-10-13T09:49:38.500Z,17.17
2022-10-13T09:52:18.435Z,20.30
2022-10-13T09:54:47.238Z,19.73
2022-10-13T09:57:30.147Z,21.63
2022-10-13T10:00:21.467Z,22.45
2022-10-13T10:02:54.136Z,18.80
2022-10-13T10:05:32.840Z,20.80
2022-10-13T10:08:11.463Z,18.38
2022-10-13T10:10:40.975Z,16.60
2022-10-13T10:13:13.385Z,19.13
2022-10-13T10:15:51.978Z,21.27
2022-10-13T10:18:39.509Z,20.10
2022-10-13T10:21:14.584Z,20.67
2022-10-13T10:23:44.637Z,21.10
2022-10-13T10:26:23.705Z,23.98
2022-10-13T10:29:13.653Z,20.05
2022-10-13T10:31:53.181Z,21.00
2022-10-13T10:34:32.969Z,22.10
2022-10-13T10:37:06.328Z,22.83
2022-10-13T10:39:51.318Z,19.23
2022-10-13T10:42:32.962Z,20.83
2022-10-13T10:45:02.543Z,28.77
2022-10-13T10:47:40.599Z,21.25
2022-10-13T10:50:09.132Z,23.60
2022-10-13T10:52:48.743Z,20.13
2022-10-13T10:55:21.440Z,19.17
2022-10-13T10:57:51.756Z,22.48
2022-10-13T11:00:20.992Z,22.13
2022-10-13T11:02:51.042Z,20.15
2022-10-13T11:05:18.469Z,20.95
2022-10-13T11:07:48.744Z,19.38
2022-10-13T11:10:21.010Z,22.88
2022-10-13T11:12:55.215Z,20.45
2022-10-13T11:15:28.803Z,20.00
2022-10-13T11:17:55.617Z,20.42
2022-10-13T11:20:25.060Z,21.65
2022-10-13T11:22:58.445Z,17.70
2022-10-13T11:25:44.701Z,21.27
2022-10-13T11:28:26.614Z,19.85
2022-10-13T11:30:56.147Z,17.60
2022-10-13T11:33:32.351Z,20.33
2022-10-13T11:36:37.325Z,18.48
2022-10-13T11:39:12.947Z,16.50
2022-10-13T11:41:44.613Z,17.60
2022-10-13T11:44:24.688Z,21.08
2022-10-13T11:47:08.237Z,16.85
2022-10-13T11:49:54.083Z,15.55
2022-10-13T11:52:30.126Z,15.38
2022-10-13T11:57:25.673Z,13.45
2022-10-13T11:59:55.686Z,13.40
2022-10-13T12:02:47.719Z,13.48
2022-10-13T12:05:23.884Z,13.73
2022-10-13T12:07:52.086Z,15.55
2022-10-13T12:10:29.769Z,11.38
2022-10-13T12:12:58.464Z,10.73
2022-10-13T12:15:31.753Z,11.48
2022-10-13T12:17:59.125Z,15.63
2022-10-13T12:20:31.233Z,13.40
2022-10-13T12:22:58.663Z,12.90
2022-10-13T12:25:27.663Z,17.73
2022-10-13T12:27:59.525Z,14.55
2022-10-13T12:30:26.774Z,12.05
2022-10-13T12:32:55.156Z,17.98
2022-10-13T12:35:26.530Z,13.52
2022-10-13T12:37:54.396Z,23.95
2022-10-13T12:40:22.442Z,18.67
2022-10-13T12:42:50.414Z,14.88
2022-10-13T12:45:21.977Z,20.02
2022-10-13T12:47:50.597Z,23.30
2022-10-13T12:50:32.884Z,17.52
2022-10-13T12:53:10.969Z,15.60
2022-10-13T12:55:46.946Z,20.70
2022-10-13T12:58:19.696Z,18.58
2022-10-13T13:00:55.280Z,16.48
2022-10-13T13:03:25.832Z,15.18
2022-10-13T13:06:07.587Z,19.17
2022-10-13T13:08:34.803Z,14.50
2022-10-13T13:11:07.028Z,14.45
2022-10-13T13:13:34.734Z,18.25
2022-10-13T13:16:14.715Z,13.90
2022-10-13T13:18:43.438Z,18.33
2022-10-13T13:21:12.482Z,13.93
2022-10-13T13:23:51.107Z,15.98
2022-10-13T13:26:22.285Z,13.68
2022-10-13T13:28:50.789Z,16.27
2022-10-13T13:31:19.245Z,11.82
2022-10-13T13:33:46.914Z,17.08
2022-10-13T13:36:21.587Z,12.43
2022-10-13T13:38:52.236Z,10.57
2022-10-13T13:41:19.789Z,17.85
2022-10-13T13:43:46.962Z,15.43
2022-10-13T13:46:18.388Z,13.23
2022-10-13T13:48:45.578Z,14.85
2022-10-13T13:51:12.893Z,10.13
2022-10-13T13:53:40.770Z,17.25
2022-10-13T13:56:12.484Z,12.52
2022-10-13T13:58:39.829Z,11.20
2022-10-13T14:01:07.162Z,12.18
2022-10-13T14:03:34.950Z,18.45
2022-10-13T14:06:02.398Z,15.00
2022-10-13T14:08:33.027Z,10.45
2022-10-13T14:11:00.732Z,11.35
2022-10-13T14:13:27.971Z,10.25
2022-10-13T14:15:58.409Z,10.90
2022-10-13T14:18:25.684Z,13.52
2022-10-13T14:20:53.092Z,13.43
2022-10-13T14:23:20.422Z,10.73
2022-10-13T14:25:47.715Z,16.08
2022-10-13T14:28:18.408Z,15.07
2022-10-13T14:30:45.763Z,15.88
2022-10-13T14:33:13.032Z,14.73
2022-10-13T14:35:41.342Z,12.00
2022-10-13T14:38:11.283Z,12.32
2022-10-13T14:40:43.476Z,17.80
2022-10-13T14:43:10.820Z,11.90
2022-10-13T14:45:38.040Z,15.68
2022-10-13T14:48:06.297Z,18.27
2022-10-13T14:50:34.630Z,13.85
2022-10-13T14:53:01.842Z,14.65
2022-10-13T14:55:32.201Z,15.07
2022-10-13T14:57:59.403Z,16.65
2022-10-13T15:00:26.686Z,17.77
2022-10-13T15:02:53.972Z,14.02
2022-10-13T15:05:23.134Z,15.10
2022-10-13T15:07:50.387Z,13.02
2022-10-13T15:10:17.673Z,18.20
2022-10-13T15:12:44.882Z,15.20
2022-10-13T15:15:12.140Z,15.07
2022-10-13T15:17:39.389Z,17.48
2022-10-13T15:20:07.123Z,14.80
2022-10-13T15:22:34.692Z,14.82
2022-10-13T15:25:04.397Z,19.95
2022-10-13T15:27:31.588Z,20.88
2022-10-13T15:29:59.063Z,17.17
2022-10-13T15:32:26.224Z,16.45
2022-10-13T15:34:55.061Z,24.83
2022-10-13T15:37:22.324Z,13.75
2022-10-13T15:39:54.547Z,15.98
2022-10-13T15:42:24.230Z,18.17
2022-10-13T15:45:08.601Z,16.73
2022-10-13T15:47:36.457Z,13.27
2022-10-13T15:50:03.957Z,17.75
2022-10-13T15:52:34.943Z,21.13
2022-10-13T15:55:02.644Z,17.40
2022-10-13T15:57:31.130Z,16.48
2022-10-13T15:59:58.474Z,16.42
2022-10-13T16:02:26.424Z,14.63
2022-10-13T16:04:54.067Z,14.93
2022-10-13T16:07:21.289Z,14.55
2022-10-13T16:09:48.540Z,15.02
2022-10-13T16:12:15.938Z,14.50
2022-10-13T16:14:43.192Z,14.85
2022-10-13T16:17:10.605Z,18.75
2022-10-13T16:19:37.895Z,13.60
2022-10-13T16:22:05.097Z,17.65
2022-10-13T16:24:33.874Z,18.67
2022-10-13T16:27:01.396Z,13.82
2022-10-13T16:29:30.337Z,19.98
2022-10-13T16:31:57.685Z,20.02
2022-10-13T16:34:25.231Z,14.25
2022-10-13T16:36:52.727Z,19.63
2022-10-13T16:39:20.030Z,16.83
2022-10-13T16:41:49.056Z,18.45
2022-10-13T16:44:17.376Z,15.70
2022-10-13T16:46:45.131Z,13.18
2022-10-13T16:49:12.777Z,23.38
2022-10-13T16:51:40.269Z,12.73
2022-10-13T16:54:07.507Z,19.58
2022-10-13T16:56:34.439Z,16.15
2022-10-13T16:59:02.806Z,10.20
2022-10-13T17:01:30.454Z,16.48
2022-10-13T17:03:57.704Z,15.50
2022-10-13T17:06:26.218Z,10.48
2022-10-13T17:08:57.261Z,14.73
2022-10-13T17:11:26.915Z,15.43
2022-10-13T17:13:56.142Z,12.23
2022-10-13T17:16:23.967Z,12.80
2022-10-13T17:18:51.312Z,14.25
2022-10-13T17:21:18.656Z,11.30
2022-10-13T17:23:48.675Z,16.25
2022-10-13T17:26:16.968Z,15.48
2022-10-13T17:28:44.500Z,16.75
2022-10-13T17:31:11.940Z,17.05
2022-10-13T17:33:40.010Z,14.55
2022-10-13T17:36:17.595Z,20.23
2022-10-13T17:38:45.675Z,16.15
2022-10-13T17:41:13.318Z,14.35
2022-10-13T17:43:48.060Z,14.65
2022-10-13T17:49:04.616Z,11.50
2022-10-13T17:51:31.926Z,12.88
2022-10-13T17:53:59.976Z,10.90
2022-10-13T17:56:27.440Z,14.82
2022-10-13T17:58:54.577Z,11.00
2022-10-13T18:01:23.754Z,14.13
2022-10-13T18:03:53.183Z,16.67
2022-10-13T18:06:26.118Z,15.38
2022-10-13T18:08:53.399Z,16.92
2022-10-13T18:11:23.150Z,18.30
2022-10-13T18:13:57.556Z,12.65
2022-10-13T18:16:25.010Z,11.98
2022-10-13T18:18:54.205Z,16.00
2022-10-13T18:21:22.663Z,15.93
2022-10-13T18:23:52.989Z,15.23
2022-10-13T18:26:21.627Z,16.33
2022-10-13T18:28:50.475Z,17.25
2022-10-13T18:31:22.052Z,14.23
2022-10-13T18:33:51.040Z,13.02
2022-10-13T18:36:23.615Z,22.10
2022-10-13T18:38:51.489Z,20.48
2022-10-13T18:41:19.451Z,18.35
2022-10-13T18:43:47.059Z,13.93
2022-10-13T18:46:16.620Z,19.95
2022-10-13T18:48:46.583Z,16.35
2022-10-13T18:51:15.433Z,19.98
2022-10-13T18:53:43.614Z,14.90
2022-10-13T18:56:16.051Z,14.52
2022-10-13T18:58:43.437Z,15.05
2022-10-13T19:01:12.116Z,17.08
2022-10-13T19:03:40.274Z,19.38
2022-10-13T19:06:09.150Z,12.27
2022-10-13T19:08:36.978Z,15.02
2022-10-13T19:11:11.973Z,15.30
2022-10-13T19:13:39.953Z,15.82
2022-10-13T19:16:07.893Z,17.05
2022-10-13T19:18:35.736Z,18.67
2022-10-13T19:21:02.997Z,16.38
2022-10-13T19:23:30.617Z,15.57
2022-10-13T19:26:08.963Z,15.75
2022-10-13T19:28:39.277Z,13.18
2022-10-13T19:31:13.878Z,14.48
2022-10-13T19:33:44.659Z,20.95
2022-10-13T19:36:20.291Z,17.95
2022-10-13T19:38:49.372Z,13.23
2022-10-13T19:41:16.839Z,12.30
2022-10-13T19:43:44.404Z,11.32
2022-10-13T19:46:11.867Z,16.58
2022-10-13T19:48:39.152Z,10.55
2022-10-13T19:51:07.628Z,11.95
2022-10-13T19:53:36.289Z,10.55
2022-10-13T19:56:03.540Z,11.68
2022-10-13T19:58:30.830Z,13.18
2022-10-13T20:01:02.228Z,11.90
2022-10-13T20:03:29.914Z,10.48
2022-10-13T20:05:57.271Z,10.60
2022-10-13T20:08:24.659Z,14.68
2022-10-13T20:10:51.904Z,11.57
2022-10-13T20:13:18.793Z,9.30
2022-10-13T20:15:48.480Z,12.27
2022-10-13T20:18:15.804Z,9.68
2022-10-13T20:20:42.730Z,9.45
2022-10-13T20:23:09.954Z,9.07
2022-10-13T20:25:39.070Z,9.25
2022-10-13T20:28:06.504Z,11.27
2022-10-13T20:30:33.920Z,9.70
2022-10-13T20:33:01.645Z,12.35
2022-10-13T20:35:28.977Z,8.65
2022-10-13T20:37:58.345Z,9.10
2022-10-13T20:40:25.176Z,6.60
2022-10-13T20:42:52.872Z,7.25
2022-10-13T20:45:20.386Z,6.28
2022-10-13T20:47:48.749Z,6.68
2022-10-13T20:50:16.096Z,7.85
2022-10-13T20:52:43.000Z,7.43
2022-10-13T20:55:10.059Z,6.25
2022-10-13T20:57:37.474Z,6.82
2022-10-13T21:00:05.941Z,7.50
2022-10-13T21:02:33.000Z,9.48
2022-10-13T21:05:00.264Z,5.25
2022-10-13T21:07:28.482Z,7.97
2022-10-13T21:09:55.339Z,5.47
2022-10-13T21:12:22.686Z,7.30
2022-10-13T21:14:49.937Z,7.85
2022-10-13T21:17:16.809Z,5.43
2022-10-13T21:19:43.645Z,5.55
2022-10-13T21:22:10.699Z,7.13
2022-10-13T21:24:37.512Z,11.52
2022-10-13T21:27:04.438Z,8.95
2022-10-13T21:29:31.931Z,7.07
2022-10-13T21:31:58.929Z,6.30
2022-10-13T21:34:26.156Z,5.80
2022-10-13T21:36:53.417Z,5.55
2022-10-13T21:39:20.258Z,10.55
2022-10-13T21:41:47.052Z,12.25
2022-10-13T21:44:14.846Z,9.35
2022-10-13T21:46:41.779Z,6.50
2022-10-13T21:49:09.725Z,9.82
2022-10-13T21:51:39.548Z,11.32
2022-10-13T21:54:09.578Z,8.30
2022-10-13T21:56:37.656Z,12.27
2022-10-13T21:59:05.747Z,9.30
2022-10-13T22:01:33.295Z,8.35
2022-10-13T22:04:02.435Z,13.00
2022-10-13T22:06:30.961Z,9.73
2022-10-13T22:08:59.862Z,8.68
2022-10-13T22:11:30.437Z,10.20
2022-10-13T22:13:58.239Z,8.68
2022-10-13T22:16:32.425Z,9.73
2022-10-13T22:18:59.740Z,9.65
2022-10-13T22:21:29.752Z,10.32
2022-10-13T22:23:59.284Z,10.05
2022-10-13T22:26:27.709Z,9.93
2022-10-13T22:28:55.093Z,7.18
2022-10-13T22:31:22.381Z,9.90
2022-10-13T22:33:53.434Z,10.73
2022-10-13T22:36:23.070Z,9.80
2022-10-13T22:38:51.882Z,8.93
2022-10-13T22:41:20.547Z,10.75
2022-10-13T22:43:56.430Z,8.98
2022-10-13T22:46:25.598Z,11.25
2022-10-13T22:48:52.897Z,15.20
2022-10-13T22:51:21.618Z,14.18
2022-10-13T22:53:49.339Z,10.60
2022-10-13T22:56:25.586Z,12.00
2022-10-13T22:58:58.439Z,13.88
2022-10-13T23:01:25.767Z,12.02
2022-10-13T23:03:55.775Z,10.27
2022-10-13T23:06:25.262Z,11.55
2022-10-13T23:08:52.455Z,11.13
2022-10-13T23:11:20.277Z,14.70
2022-10-13T23:13:47.960Z,15.30
2022-10-13T23:16:18.223Z,16.85
2022-10-13T23:18:45.461Z,11.43
2022-10-13T23:21:26.008Z,11.40
2022-10-13T23:23:58.427Z,11.60
2022-10-13T23:26:25.906Z,11.80
2022-10-13T23:28:53.919Z,14.15
2022-10-13T23:31:20.916Z,10.50
2022-10-13T23:33:47.885Z,8.32
2022-10-13T23:36:18.432Z,11.25
2022-10-13T23:38:48.122Z,19.80
2022-10-13T23:41:16.088Z,12.63
2022-10-13T23:43:43.569Z,16.67
2022-10-13T23:46:11.039Z,10.25
2022-10-13T23:48:39.107Z,12.68
2022-10-13T23:51:08.618Z,14.02
2022-10-13T23:53:36.939Z,13.63
2022-10-13T23:56:05.152Z,18.77
2022-10-13T23:58:32.789Z,14.43
